Terminal Aerodrome Forecast
Issued by NWS

Home | Current Version | Previous Version | Text Only | Print | Product List | Glossary On
Versions: 1 2 3 4 5 6 7 8 9 10 11 12 13 14 15 16 17 18 19 20 21 22 23 24 25 26 27 28 29 30 31 32 33 34 35 36 37 38 39 40 41 42 43 44 45 46 47 48 49 50
074
FTUS43 KDMX 241211 AAA
TAFMCW
TAF AMD
KMCW 241211Z 2412/2512 04006KT P6SM OVC009
     FM241500 10009KT P6SM OVC009
     FM242100 09010KT 3SM -SN BR OVC009
     FM250000 08010G17KT 1SM SN OVC007
     FM250200 05011G17KT 1/2SM +SN OVC004=

USA.gov is the U.S. government's official web portal to all federal, state and local government web resources and services.